Time;durP1;ratioP1;P1;durP2;ratioP2;P2;SDS_P1;SDS_P2;PMS_P1;PMS_P2;Temp;Humidity;BMP_temperature;BMP_pressure;BME280_temperature;BME280_humidity;BME280_pressure;Samples;Min_cycle;Max_cycle;Signal;HPM_P1;HPM_P2
2023/09/28 00:01:17;;;;;;;14.85;9.50;;;15.80;99.90;;;;;;5053266;28;20163;-94
2023/09/28 00:03:43;;;;;;;12.13;9.75;;;15.90;99.90;;;;;;5052310;28;20178;-96
2023/09/28 00:06:09;;;;;;;15.38;10.40;;;15.80;99.90;;;;;;5053413;28;20202;-95
2023/09/28 00:08:47;;;;;;;13.30;9.98;;;15.80;99.90;;;;;;5054073;28;20182;-92
2023/09/28 00:11:12;;;;;;;14.13;10.68;;;15.80;99.90;;;;;;5053833;28;20186;-96
2023/09/28 00:13:38;;;;;;;14.70;11.13;;;15.70;99.90;;;;;;5055181;28;20170;-96
2023/09/28 00:16:04;;;;;;;11.77;10.60;;;15.70;99.90;;;;;;5058462;28;20190;-88
2023/09/28 00:18:48;;;;;;;13.43;10.77;;;15.80;99.90;;;;;;5060348;28;20197;-89
2023/09/28 00:21:14;;;;;;;12.93;10.02;;;15.70;99.90;;;;;;5044857;28;20222;-91
2023/09/28 00:23:39;;;;;;;13.02;11.25;;;15.80;99.90;;;;;;5036628;28;20160;-90
2023/09/28 00:26:07;;;;;;;13.82;10.10;;;15.80;99.90;;;;;;5039539;28;20219;-92
2023/09/28 00:28:45;;;;;;;12.18;10.75;;;15.80;99.90;;;;;;5038334;28;20167;-88
2023/09/28 00:31:10;;;;;;;13.40;10.65;;;15.80;99.90;;;;;;5029539;28;20202;-96
2023/09/28 00:33:36;;;;;;;11.68;10.10;;;15.80;99.90;;;;;;5021929;28;20184;-96
2023/09/28 00:36:02;;;;;;;11.43;10.10;;;15.70;99.90;;;;;;5011345;28;20187;-96
2023/09/28 00:39:12;;;;;;;11.50;10.30;;;15.60;99.90;;;;;;5026239;28;20231;-96
2023/09/28 00:41:38;;;;;;;16.15;11.65;;;15.60;99.90;;;;;;5044632;28;20229;-96
2023/09/28 00:44:09;;;;;;;17.13;11.77;;;15.40;99.90;;;;;;5038760;28;20192;-89
2023/09/28 00:46:37;;;;;;;11.90;10.63;;;15.40;99.90;;;;;;5019672;28;20211;-96
2023/09/28 00:49:05;;;;;;;13.82;11.80;;;15.40;99.90;;;;;;5016804;28;20175;-90
2023/09/28 00:51:33;;;;;;;13.88;10.90;;;15.40;99.90;;;;;;5034937;28;20524;-94
2023/09/28 00:54:01;;;;;;;13.85;10.20;;;15.40;99.90;;;;;;5038883;28;20182;-88
2023/09/28 00:56:28;;;;;;;11.82;9.82;;;15.40;99.90;;;;;;5039464;28;20179;-87
2023/09/28 00:58:56;;;;;;;14.27;10.27;;;15.40;99.90;;;;;;5039397;28;20533;-88
2023/09/28 01:01:24;;;;;;;15.20;11.52;;;15.40;99.90;;;;;;5037557;28;20171;-89
2023/09/28 01:03:51;;;;;;;12.38;10.90;;;15.40;99.90;;;;;;5038009;28;20284;-89
2023/09/28 01:06:17;;;;;;;17.20;12.00;;;15.40;99.90;;;;;;5039629;28;20229;-87
2023/09/28 01:08:46;;;;;;;13.27;11.48;;;15.50;99.90;;;;;;5039499;28;20205;-89
2023/09/28 01:11:12;;;;;;;12.65;10.02;;;15.40;99.90;;;;;;5037428;28;20182;-88
2023/09/28 01:13:39;;;;;;;14.25;11.02;;;15.40;99.90;;;;;;5037763;28;20179;-89
2023/09/28 01:16:05;;;;;;;12.48;10.55;;;15.50;99.90;;;;;;5037364;28;20609;-89
2023/09/28 01:18:31;;;;;;;13.25;9.80;;;15.50;99.90;;;;;;5035840;28;20174;-90
2023/09/28 01:20:58;;;;;;;14.95;11.35;;;15.50;99.90;;;;;;5026201;28;20187;-88
2023/09/28 01:23:24;;;;;;;12.65;9.45;;;15.50;99.90;;;;;;5019707;28;20685;-91
2023/09/28 01:25:50;;;;;;;13.80;10.93;;;15.50;99.90;;;;;;5015419;28;20211;-92
2023/09/28 01:30:52;;;;;;;14.07;10.48;;;15.30;99.90;;;;;;5115909;22;20245;-91
2023/09/28 01:33:18;;;;;;;13.73;9.50;;;15.40;99.90;;;;;;5044043;28;20178;-92
2023/09/28 01:35:43;;;;;;;13.10;10.30;;;15.40;99.90;;;;;;5042552;28;20186;-92
2023/09/28 01:38:26;;;;;;;14.30;9.98;;;15.40;99.90;;;;;;5043375;28;20174;-92
2023/09/28 01:40:57;;;;;;;15.43;10.82;;;15.40;99.90;;;;;;5041739;28;20238;-93
2023/09/28 01:43:23;;;;;;;15.75;12.07;;;15.30;99.90;;;;;;5041267;28;20217;-92
2023/09/28 01:45:49;;;;;;;12.73;10.10;;;15.30;99.90;;;;;;5041064;28;20210;-93
2023/09/28 01:48:17;;;;;;;16.15;11.30;;;15.30;99.90;;;;;;5039508;28;20214;-92
2023/09/28 01:50:55;;;;;;;16.70;10.88;;;15.20;99.90;;;;;;5039858;28;20210;-93
2023/09/28 01:53:20;;;;;;;13.60;11.07;;;15.20;99.90;;;;;;5039405;28;20201;-95
2023/09/28 01:55:48;;;;;;;16.92;10.73;;;15.20;99.90;;;;;;5040090;28;20617;-93
2023/09/28 01:58:13;;;;;;;14.80;11.27;;;15.20;99.90;;;;;;5039737;28;20185;-93
2023/09/28 02:00:52;;;;;;;15.18;11.45;;;15.20;99.90;;;;;;5039740;28;20183;-95
2023/09/28 02:03:21;;;;;;;13.32;11.25;;;15.20;99.90;;;;;;5040429;28;20177;-93
2023/09/28 02:05:49;;;;;;;16.25;11.27;;;15.10;99.90;;;;;;5040146;28;20281;-94
2023/09/28 02:08:15;;;;;;;14.63;10.77;;;15.20;99.90;;;;;;5023400;28;20190;-93
2023/09/28 02:10:46;;;;;;;12.52;9.80;;;15.20;99.90;;;;;;5038755;28;20185;-94
2023/09/28 02:13:11;;;;;;;16.08;12.30;;;15.20;99.90;;;;;;5038943;28;20668;-94
2023/09/28 02:15:37;;;;;;;13.85;11.45;;;15.30;99.90;;;;;;5038541;28;20213;-94
2023/09/28 02:18:10;;;;;;;13.70;11.43;;;15.30;99.90;;;;;;5038531;28;20179;-94
2023/09/28 02:20:39;;;;;;;15.40;11.45;;;15.20;99.90;;;;;;5037861;28;20248;-93
2023/09/28 02:23:09;;;;;;;16.30;11.18;;;15.20;99.90;;;;;;5038535;28;20197;-93
2023/09/28 02:25:35;;;;;;;18.42;11.65;;;15.20;99.90;;;;;;5041289;28;20213;-93
2023/09/28 02:28:01;;;;;;;15.90;11.98;;;15.10;99.90;;;;;;5039443;28;20178;-93
2023/09/28 02:30:36;;;;;;;15.70;12.32;;;15.10;99.90;;;;;;5039269;28;20289;-94
2023/09/28 02:33:01;;;;;;;18.05;13.10;;;15.10;99.90;;;;;;5037830;28;20207;-95
2023/09/28 02:35:28;;;;;;;13.77;11.50;;;15.10;99.90;;;;;;5039191;28;20177;-96
2023/09/28 02:37:54;;;;;;;18.33;14.98;;;15.10;99.90;;;;;;5039542;28;20218;-95
2023/09/28 02:40:20;;;;;;;18.85;12.63;;;15.20;99.90;;;;;;5038625;28;20182;-94
2023/09/28 02:42:48;;;;;;;19.10;12.70;;;15.20;99.90;;;;;;5038353;28;20273;-94
2023/09/28 02:45:16;;;;;;;19.52;14.80;;;15.20;99.90;;;;;;5040099;28;20573;-94
2023/09/28 02:47:44;;;;;;;20.85;14.88;;;15.20;99.90;;;;;;5038938;28;20653;-93
2023/09/28 02:50:11;;;;;;;15.48;12.63;;;15.10;99.90;;;;;;5040300;28;20205;-93
2023/09/28 02:52:45;;;;;;;18.33;12.98;;;15.10;99.90;;;;;;5038288;28;20193;-94
2023/09/28 02:55:13;;;;;;;16.25;13.00;;;15.10;99.90;;;;;;5039027;28;20171;-94
2023/09/28 02:57:39;;;;;;;16.75;12.70;;;15.10;99.90;;;;;;5039749;28;20185;-93
2023/09/28 03:00:28;;;;;;;15.23;12.52;;;15.00;99.90;;;;;;5039553;28;20190;-93
2023/09/28 03:02:56;;;;;;;17.83;13.57;;;15.00;99.90;;;;;;5038986;28;20206;-94
2023/09/28 03:05:23;;;;;;;17.88;14.20;;;14.90;99.90;;;;;;5041921;28;20204;-94
2023/09/28 03:07:51;;;;;;;15.95;13.00;;;14.80;99.90;;;;;;5043389;28;20309;-95
2023/09/28 03:10:17;;;;;;;18.23;12.48;;;14.80;99.90;;;;;;5042258;28;20178;-93
2023/09/28 03:12:51;;;;;;;15.50;12.45;;;14.90;99.90;;;;;;5043427;28;20182;-93
2023/09/28 03:15:17;;;;;;;14.07;12.32;;;14.90;99.90;;;;;;5042527;28;20170;-94
2023/09/28 03:17:46;;;;;;;14.98;12.38;;;15.00;99.90;;;;;;5042840;28;20182;-94
2023/09/28 03:20:17;;;;;;;16.17;13.20;;;15.00;99.90;;;;;;5039602;28;20179;-94
2023/09/28 03:22:47;;;;;;;15.85;12.55;;;15.00;99.90;;;;;;5041952;28;20186;-93
2023/09/28 03:25:21;;;;;;;17.35;12.77;;;15.10;99.90;;;;;;5041132;28;20174;-94
2023/09/28 03:27:49;;;;;;;15.73;12.27;;;15.00;99.90;;;;;;5026081;28;20179;-92
2023/09/28 03:30:25;;;;;;;14.43;12.75;;;15.10;99.90;;;;;;5053604;22;20310;-93
2023/09/28 03:32:53;;;;;;;17.13;12.15;;;15.10;99.90;;;;;;5009974;28;20959;-93
2023/09/28 03:35:22;;;;;;;17.10;12.60;;;15.10;99.90;;;;;;5026840;28;20254;-94
2023/09/28 03:37:53;;;;;;;14.77;12.88;;;15.00;99.90;;;;;;5041521;28;20183;-94
2023/09/28 03:40:20;;;;;;;13.93;11.90;;;15.00;99.90;;;;;;5030287;28;20155;-95
2023/09/28 03:42:52;;;;;;;15.48;13.55;;;15.00;99.90;;;;;;5124958;22;20233;-94
2023/09/28 03:45:24;;;;;;;16.02;13.05;;;15.00;99.90;;;;;;5042673;28;20252;-94
2023/09/28 03:48:10;;;;;;;20.40;12.43;;;15.00;99.90;;;;;;5024481;28;20179;-94
2023/09/28 03:50:37;;;;;;;15.20;12.45;;;15.00;99.90;;;;;;5042687;28;20162;-95
2023/09/28 03:53:08;;;;;;;17.33;12.65;;;14.90;99.90;;;;;;5077900;22;20257;-94
2023/09/28 03:55:40;;;;;;;17.27;13.40;;;14.90;99.90;;;;;;5070600;22;20716;-93
2023/09/28 04:00:59;;;;;;;18.75;12.80;;;14.90;99.90;;;;;;5231357;22;20240;-94
2023/09/28 04:03:35;;;;;;;17.98;13.93;;;14.90;99.90;;;;;;5178902;22;20260;-93
2023/09/28 04:09:08;;;;;;;18.60;13.50;;;14.80;99.90;;;;;;5176421;22;20268;-93
2023/09/28 04:14:36;;;;;;;17.90;13.73;;;14.80;99.90;;;;;;5382880;22;20538;-94
2023/09/28 04:17:17;;;;;;;16.48;13.18;;;14.80;99.90;;;;;;5058274;28;20202;-92
2023/09/28 04:22:21;;;;;;;20.05;14.65;;;14.80;99.90;;;;;;5220249;22;20268;-92
2023/09/28 04:24:56;;;;;;;19.98;14.82;;;14.80;99.90;;;;;;5046594;23;20326;-91
2023/09/28 04:27:32;;;;;;;20.00;15.35;;;14.80;99.90;;;;;;5033814;28;20775;-91
2023/09/28 04:32:51;;;;;;;20.98;15.18;;;14.70;99.90;;;;;;5168528;22;20241;-92
2023/09/28 04:36:12;;;;;;;15.80;13.20;;;14.70;99.90;;;;;;5149212;22;20207;-93
2023/09/28 04:38:56;;;;;;;15.40;13.43;;;14.70;99.90;;;;;;5515826;22;20293;-92
2023/09/28 04:41:22;;;;;;;14.77;11.50;;;14.70;99.90;;;;;;5046493;28;20190;-94
2023/09/28 04:43:50;;;;;;;18.98;12.85;;;14.60;99.90;;;;;;5048285;28;20206;-93
2023/09/28 04:46:34;;;;;;;17.27;13.13;;;14.60;99.90;;;;;;5053194;28;20178;-93
2023/09/28 04:49:28;;;;;;;19.83;13.32;;;14.70;99.90;;;;;;5053027;28;20167;-91
2023/09/28 04:52:28;;;;;;;18.10;12.15;;;14.60;99.90;;;;;;5050181;28;20226;-93
2023/09/28 04:54:59;;;;;;;14.73;12.40;;;14.50;99.90;;;;;;5048756;28;20202;-94
2023/09/28 04:57:26;;;;;;;19.40;12.45;;;14.60;99.90;;;;;;5050042;28;20178;-92
2023/09/28 04:59:51;;;;;;;19.95;13.60;;;14.60;99.90;;;;;;5050129;28;20198;-92
2023/09/28 05:02:19;;;;;;;13.10;11.70;;;14.50;99.90;;;;;;5049435;28;20179;-94
2023/09/28 05:04:46;;;;;;;17.48;13.25;;;14.40;99.90;;;;;;5050309;28;20314;-93
2023/09/28 05:07:14;;;;;;;19.10;13.60;;;14.40;99.90;;;;;;5048655;28;20214;-95
2023/09/28 05:09:41;;;;;;;15.02;11.98;;;14.50;99.90;;;;;;5047941;28;20187;-95
2023/09/28 05:12:25;;;;;;;15.40;12.93;;;14.50;99.90;;;;;;5048180;28;20182;-95
2023/09/28 05:14:51;;;;;;;17.38;12.82;;;14.60;99.90;;;;;;5051017;28;20226;-93
2023/09/28 05:17:18;;;;;;;14.90;12.68;;;14.60;99.90;;;;;;5052012;28;20186;-93
2023/09/28 05:19:43;;;;;;;14.70;12.88;;;14.60;99.90;;;;;;5048968;28;20185;-95
2023/09/28 05:22:55;;;;;;;14.52;12.38;;;14.50;99.90;;;;;;5031014;28;20211;-94
2023/09/28 05:25:30;;;;;;;15.85;12.77;;;14.60;99.90;;;;;;5029608;28;20184;-93
2023/09/28 05:27:58;;;;;;;20.88;13.63;;;14.60;99.90;;;;;;5029421;28;20163;-95
2023/09/28 05:30:23;;;;;;;20.05;13.50;;;14.60;99.90;;;;;;5024171;28;20237;-93
2023/09/28 05:32:52;;;;;;;21.40;14.52;;;14.70;99.90;;;;;;5021709;28;20174;-94
2023/09/28 05:35:19;;;;;;;18.88;14.20;;;14.70;99.90;;;;;;5020443;28;20613;-93
2023/09/28 05:37:47;;;;;;;18.77;14.05;;;14.80;99.90;;;;;;5021718;28;20210;-94
2023/09/28 05:40:13;;;;;;;18.95;13.18;;;14.90;99.90;;;;;;5020590;28;20222;-91
2023/09/28 05:43:06;;;;;;;20.52;14.43;;;14.90;99.90;;;;;;5020142;28;20598;-94
2023/09/28 05:45:32;;;;;;;23.13;14.10;;;15.00;99.90;;;;;;5021179;28;20214;-95
2023/09/28 05:47:58;;;;;;;17.33;13.52;;;15.00;99.90;;;;;;5019633;28;20178;-95
2023/09/28 05:50:25;;;;;;;18.60;12.52;;;15.10;99.90;;;;;;5020005;28;20606;-95
2023/09/28 05:53:05;;;;;;;21.05;14.48;;;15.10;99.90;;;;;;5078058;23;20179;-95
2023/09/28 05:55:31;;;;;;;16.65;12.77;;;15.10;99.90;;;;;;5075985;22;20237;-95
2023/09/28 05:58:03;;;;;;;22.95;13.60;;;15.20;99.90;;;;;;5105802;22;20309;-92
2023/09/28 06:00:30;;;;;;;18.73;13.93;;;15.10;99.90;;;;;;5104969;22;20241;-95
2023/09/28 06:02:58;;;;;;;18.05;13.65;;;15.20;99.90;;;;;;5051625;28;20178;-90
2023/09/28 06:05:28;;;;;;;19.92;12.98;;;15.20;99.90;;;;;;5044547;28;20182;-93
2023/09/28 06:07:55;;;;;;;15.82;12.77;;;15.30;99.90;;;;;;5050597;28;20194;-92
2023/09/28 06:10:21;;;;;;;20.75;14.05;;;15.40;99.90;;;;;;5048667;28;20910;-91
2023/09/28 06:12:48;;;;;;;17.73;12.82;;;15.50;99.90;;;;;;5045122;28;20178;-92
2023/09/28 06:15:14;;;;;;;23.95;12.38;;;15.50;99.90;;;;;;5044118;28;20171;-92
2023/09/28 06:17:39;;;;;;;17.67;13.40;;;15.60;99.90;;;;;;5039631;28;20178;-92
2023/09/28 06:20:07;;;;;;;19.67;14.10;;;15.70;99.90;;;;;;5039577;28;20240;-90
2023/09/28 06:22:33;;;;;;;17.75;12.88;;;15.80;99.90;;;;;;5039108;28;20201;-92
2023/09/28 06:24:59;;;;;;;18.15;13.25;;;15.90;99.90;;;;;;5039899;28;20171;-93
2023/09/28 06:27:26;;;;;;;19.75;12.93;;;16.00;99.90;;;;;;5040932;28;20210;-93
2023/09/28 06:29:53;;;;;;;24.10;12.90;;;16.00;99.90;;;;;;5039922;28;20262;-93
2023/09/28 06:32:30;;;;;;;15.52;12.45;;;16.10;99.90;;;;;;5059264;22;20243;-91
2023/09/28 06:34:56;;;;;;;14.57;12.55;;;16.10;99.90;;;;;;5043348;28;20242;-90
2023/09/28 06:37:23;;;;;;;18.77;12.70;;;16.20;99.90;;;;;;5042196;28;20205;-89
2023/09/28 06:39:48;;;;;;;14.63;12.00;;;16.30;99.90;;;;;;5045540;28;20197;-89
2023/09/28 06:42:14;;;;;;;17.50;12.57;;;16.40;99.90;;;;;;5046206;28;20208;-90
2023/09/28 06:44:49;;;;;;;15.05;11.90;;;16.40;99.90;;;;;;5046165;28;20180;-91
2023/09/28 06:47:15;;;;;;;13.25;11.45;;;16.40;99.90;;;;;;5045670;28;20267;-90
2023/09/28 06:49:40;;;;;;;17.35;11.75;;;16.40;99.90;;;;;;5045943;28;20562;-90
2023/09/28 06:52:08;;;;;;;17.42;11.32;;;16.40;99.90;;;;;;5045746;28;20198;-91
2023/09/28 06:54:37;;;;;;;13.43;11.73;;;16.50;99.90;;;;;;5046227;28;20173;-92
2023/09/28 06:57:07;;;;;;;15.30;11.00;;;16.50;99.90;;;;;;5045119;28;20184;-91
2023/09/28 06:59:34;;;;;;;16.58;11.00;;;16.50;99.90;;;;;;5045595;28;20182;-91
2023/09/28 07:02:00;;;;;;;19.70;12.32;;;16.60;99.90;;;;;;5045886;28;20192;-89
2023/09/28 07:04:27;;;;;;;19.73;11.30;;;16.70;99.90;;;;;;5045351;28;20619;-88
2023/09/28 07:06:52;;;;;;;15.52;11.57;;;16.90;99.90;;;;;;5044503;28;20304;-89
2023/09/28 07:09:18;;;;;;;16.15;11.52;;;17.00;99.90;;;;;;5042620;28;20560;-89
2023/09/28 07:11:44;;;;;;;13.88;11.68;;;17.10;99.90;;;;;;5044815;28;20182;-90
2023/09/28 07:14:26;;;;;;;13.77;10.60;;;17.20;99.90;;;;;;5045141;28;20662;-91
2023/09/28 07:16:53;;;;;;;14.90;10.80;;;17.30;99.90;;;;;;5044199;28;20181;-90
2023/09/28 07:19:19;;;;;;;13.77;9.73;;;17.40;99.90;;;;;;5044287;28;20274;-92
2023/09/28 07:21:46;;;;;;;15.55;9.52;;;17.50;99.90;;;;;;5043398;28;20265;-91
2023/09/28 07:24:14;;;;;;;13.32;9.32;;;17.60;99.90;;;;;;5042764;28;20612;-90
2023/09/28 07:26:41;;;;;;;10.18;8.75;;;17.60;99.90;;;;;;5042815;28;20548;-89
2023/09/28 07:29:08;;;;;;;12.35;9.02;;;17.60;99.90;;;;;;5043873;28;20177;-88
2023/09/28 07:31:34;;;;;;;11.55;8.95;;;17.70;99.90;;;;;;5044030;28;20228;-93
2023/09/28 07:34:02;;;;;;;13.18;9.00;;;17.70;99.90;;;;;;5043108;28;20170;-89
2023/09/28 07:36:28;;;;;;;12.73;9.10;;;17.70;99.90;;;;;;5043961;28;20627;-90
2023/09/28 07:38:54;;;;;;;10.70;8.55;;;17.70;99.90;;;;;;5041741;28;20185;-93
2023/09/28 07:41:21;;;;;;;10.95;7.78;;;17.70;99.90;;;;;;5040759;28;20182;-92
2023/09/28 07:43:49;;;;;;;17.10;8.32;;;17.80;99.90;;;;;;5041562;28;20501;-92
2023/09/28 07:46:16;;;;;;;9.52;8.23;;;17.80;99.90;;;;;;5041497;28;20216;-91
2023/09/28 07:48:42;;;;;;;14.48;8.07;;;17.80;99.90;;;;;;5043099;28;20177;-90
2023/09/28 07:51:08;;;;;;;10.93;8.10;;;17.80;99.90;;;;;;5037327;28;20269;-89
2023/09/28 07:53:36;;;;;;;13.02;8.45;;;17.80;99.90;;;;;;5049048;28;20188;-96
2023/09/28 07:56:01;;;;;;;13.30;8.35;;;17.80;99.90;;;;;;5047753;28;20174;-90
2023/09/28 07:58:27;;;;;;;14.23;8.82;;;17.90;99.90;;;;;;5039969;28;20671;-89
2023/09/28 08:00:53;;;;;;;11.63;8.07;;;17.80;99.90;;;;;;5040774;28;20174;-91
2023/09/28 08:03:34;;;;;;;12.15;7.82;;;17.90;99.90;;;;;;5041711;28;20174;-91
2023/09/28 08:06:00;;;;;;;14.35;8.45;;;17.90;99.90;;;;;;5038804;28;20210;-90
2023/09/28 08:08:27;;;;;;;15.95;8.43;;;17.90;99.90;;;;;;5036945;28;20180;-89
2023/09/28 08:10:55;;;;;;;13.88;7.90;;;18.00;99.90;;;;;;5038362;28;20171;-90
2023/09/28 08:13:27;;;;;;;11.30;7.88;;;18.00;99.90;;;;;;5006988;28;20190;-89
2023/09/28 08:15:53;;;;;;;10.02;7.43;;;18.00;99.90;;;;;;5039413;28;20262;-89
2023/09/28 08:18:19;;;;;;;11.07;8.05;;;18.10;99.90;;;;;;5039015;28;20185;-90
2023/09/28 08:20:46;;;;;;;15.80;7.72;;;18.10;99.90;;;;;;5038919;28;20182;-89
2023/09/28 08:23:11;;;;;;;12.65;8.20;;;18.10;99.90;;;;;;5038968;28;20210;-91
2023/09/28 08:25:37;;;;;;;11.73;7.60;;;18.10;99.90;;;;;;5037996;28;20209;-89
2023/09/28 08:28:03;;;;;;;12.05;8.05;;;18.10;99.90;;;;;;5038264;28;20242;-90
2023/09/28 08:30:29;;;;;;;10.98;8.38;;;18.10;99.90;;;;;;5038175;28;20170;-92
2023/09/28 08:32:55;;;;;;;9.85;7.60;;;18.10;99.90;;;;;;5036386;28;20233;-89
2023/09/28 08:35:50;;;;;;;12.20;7.93;;;18.10;99.90;;;;;;5037442;28;20181;-89
2023/09/28 08:38:16;;;;;;;10.38;8.07;;;18.10;99.90;;;;;;5038094;28;20170;-87
2023/09/28 08:40:42;;;;;;;10.05;8.05;;;18.20;99.90;;;;;;5037190;28;20181;-88
2023/09/28 08:43:11;;;;;;;10.57;8.10;;;18.30;99.90;;;;;;5036034;28;20178;-87
2023/09/28 08:45:39;;;;;;;10.25;7.57;;;18.40;99.90;;;;;;5037751;28;20198;-90
2023/09/28 08:48:09;;;;;;;10.10;7.63;;;18.60;99.90;;;;;;5036204;28;20175;-90
2023/09/28 08:50:38;;;;;;;9.95;7.63;;;18.80;99.90;;;;;;5037450;28;20213;-89
2023/09/28 08:53:07;;;;;;;11.80;6.75;;;19.00;99.90;;;;;;5036535;28;20194;-91
2023/09/28 08:55:41;;;;;;;13.32;6.20;;;19.10;99.90;;;;;;5035380;28;20261;-89
2023/09/28 08:58:10;;;;;;;10.02;6.57;;;19.20;99.90;;;;;;5035085;28;20305;-87
2023/09/28 09:00:37;;;;;;;9.38;5.88;;;19.40;99.90;;;;;;5035213;28;20508;-89
2023/09/28 09:03:06;;;;;;;7.78;5.50;;;19.50;99.90;;;;;;5036747;28;20175;-90
2023/09/28 09:05:46;;;;;;;7.55;5.18;;;19.50;99.90;;;;;;5035634;28;20205;-90
2023/09/28 09:08:14;;;;;;;9.32;5.03;;;19.50;99.90;;;;;;5037333;28;20182;-89
2023/09/28 09:10:40;;;;;;;7.05;4.75;;;19.50;99.90;;;;;;5049457;28;20201;-93
2023/09/28 09:13:16;;;;;;;6.15;4.30;;;19.60;99.90;;;;;;5042230;28;20183;-93
2023/09/28 09:15:50;;;;;;;7.57;4.10;;;19.70;99.90;;;;;;5048030;28;20162;-96
2023/09/28 09:18:20;;;;;;;5.68;3.80;;;19.80;99.90;;;;;;5054761;28;20194;-96
2023/09/28 09:20:49;;;;;;;8.57;4.63;;;20.00;99.90;;;;;;5050273;28;20174;-96
2023/09/28 09:23:17;;;;;;;7.25;3.65;;;20.20;99.90;;;;;;5054296;28;20186;-94
2023/09/28 09:25:58;;;;;;;7.55;3.55;;;20.30;99.90;;;;;;5051830;28;20202;-93
2023/09/28 09:28:37;;;;;;;6.60;4.22;;;20.50;99.90;;;;;;5047801;28;20198;-96
2023/09/28 09:31:03;;;;;;;7.20;3.60;;;20.50;99.90;;;;;;5045225;28;20189;-96
2023/09/28 09:33:30;;;;;;;7.32;3.60;;;20.60;99.90;;;;;;5044549;28;20230;-96
2023/09/28 09:35:59;;;;;;;5.57;3.88;;;20.70;99.90;;;;;;5041799;28;20182;-96
2023/09/28 09:38:29;;;;;;;5.93;3.88;;;20.70;99.90;;;;;;5049181;28;20163;-96
2023/09/28 09:41:00;;;;;;;7.03;3.72;;;20.80;99.90;;;;;;5040749;28;20236;-96
2023/09/28 09:43:30;;;;;;;5.47;3.67;;;20.90;99.90;;;;;;5042042;28;20198;-94
2023/09/28 09:46:02;;;;;;;8.25;3.75;;;21.00;99.90;;;;;;5044003;28;20213;-95
2023/09/28 09:48:29;;;;;;;4.88;3.50;;;21.10;99.90;;;;;;5039704;28;20210;-96
2023/09/28 09:50:57;;;;;;;6.05;3.55;;;21.10;99.90;;;;;;5044537;28;20182;-96
2023/09/28 09:53:25;;;;;;;7.20;3.15;;;21.10;99.90;;;;;;5045427;28;20249;-96
2023/09/28 09:55:55;;;;;;;5.18;3.50;;;21.20;99.90;;;;;;5049389;28;20182;-96
2023/09/28 09:58:27;;;;;;;7.43;3.78;;;21.40;99.90;;;;;;5041878;28;20256;-96
2023/09/28 10:00:54;;;;;;;5.70;3.15;;;21.50;99.90;;;;;;5043479;28;20470;-95
2023/09/28 10:03:21;;;;;;;5.07;3.53;;;21.50;99.90;;;;;;5044566;28;20209;-96
2023/09/28 10:05:54;;;;;;;8.35;3.83;;;21.50;99.90;;;;;;5048108;28;20220;-96
2023/09/28 10:08:20;;;;;;;4.70;3.38;;;21.60;99.90;;;;;;5041970;28;20174;-96
2023/09/28 10:10:46;;;;;;;8.98;3.90;;;21.60;99.90;;;;;;5041880;28;20231;-96
2023/09/28 10:13:13;;;;;;;7.32;3.58;;;21.60;99.90;;;;;;5039712;28;20174;-96
2023/09/28 10:16:08;;;;;;;8.10;3.20;;;21.60;99.90;;;;;;5041193;28;20583;-93
2023/09/28 10:18:36;;;;;;;7.00;3.80;;;21.60;99.90;;;;;;5038628;28;20237;-94
2023/09/28 10:21:03;;;;;;;5.70;3.22;;;21.60;99.90;;;;;;5037630;28;20217;-91
2023/09/28 10:23:30;;;;;;;7.50;3.97;;;21.70;99.90;;;;;;5054703;28;20166;-94
2023/09/28 10:26:16;;;;;;;7.70;3.72;;;21.80;99.90;;;;;;5037947;28;20206;-91
2023/09/28 10:29:03;;;;;;;4.72;3.60;;;21.80;99.90;;;;;;5056218;28;20252;-91
2023/09/28 10:31:29;;;;;;;4.10;3.20;;;22.00;99.90;;;;;;5038278;28;20264;-93
2023/09/28 10:34:05;;;;;;;6.10;3.58;;;22.10;99.90;;;;;;5039014;28;20598;-90
2023/09/28 10:36:39;;;;;;;6.43;3.75;;;22.10;99.90;;;;;;5038290;28;20177;-92
2023/09/28 10:39:14;;;;;;;6.75;3.40;;;22.20;99.90;;;;;;5039566;28;20237;-94
2023/09/28 10:41:50;;;;;;;5.32;3.28;;;22.30;99.90;;;;;;5039593;28;20177;-92
2023/09/28 10:44:19;;;;;;;11.25;3.60;;;22.30;99.90;;;;;;5038741;28;20264;-92
2023/09/28 10:46:51;;;;;;;10.45;3.53;;;22.40;99.90;;;;;;5040520;28;20213;-94
2023/09/28 10:49:24;;;;;;;5.57;3.53;;;22.40;99.90;;;;;;5060376;22;20200;-90
2023/09/28 10:51:54;;;;;;;8.63;3.33;;;22.40;99.90;;;;;;5027543;28;20743;-94
2023/09/28 10:54:52;;;;;;;7.82;3.63;;;22.50;99.90;;;;;;5042837;28;20162;-89
2023/09/28 10:57:18;;;;;;;5.65;3.40;;;22.50;99.90;;;;;;5031544;28;20187;-96
2023/09/28 10:59:44;;;;;;;7.57;3.90;;;22.60;99.90;;;;;;5022935;28;20181;-96
2023/09/28 11:02:10;;;;;;;7.40;3.50;;;22.60;99.90;;;;;;5021061;28;20174;-95
2023/09/28 11:04:41;;;;;;;109.45;8.05;;;22.60;99.90;;;;;;5025535;28;20178;-95
2023/09/28 11:07:07;;;;;;;5.65;3.50;;;23.00;99.90;;;;;;5023855;28;20364;-92
2023/09/28 11:09:33;;;;;;;5.90;3.70;;;22.90;99.90;;;;;;5023603;28;20637;-95
2023/09/28 11:11:59;;;;;;;8.27;3.60;;;22.90;99.90;;;;;;5018591;28;20182;-91
2023/09/28 11:14:25;;;;;;;6.28;3.40;;;22.90;99.90;;;;;;5020620;28;20181;-95
2023/09/28 11:16:52;;;;;;;5.55;3.50;;;22.90;99.90;;;;;;5024259;28;20174;-93
2023/09/28 11:19:24;;;;;;;6.53;3.42;;;23.00;99.90;;;;;;5172201;22;20229;-89
2023/09/28 11:21:50;;;;;;;5.15;3.20;;;23.00;99.90;;;;;;5047532;28;20216;-95
2023/09/28 11:24:16;;;;;;;7.72;3.30;;;23.00;99.90;;;;;;5062768;28;20194;-92
2023/09/28 11:26:51;;;;;;;5.88;3.60;;;23.10;99.90;;;;;;5048003;28;20304;-91
2023/09/28 11:29:17;;;;;;;6.38;3.70;;;23.10;99.90;;;;;;5046954;28;20197;-94
2023/09/28 11:32:10;;;;;;;6.40;3.67;;;23.10;99.90;;;;;;5042641;28;20193;-89
2023/09/28 11:34:38;;;;;;;6.28;3.65;;;23.20;99.90;;;;;;5045816;28;20177;-95
2023/09/28 11:37:16;;;;;;;5.35;3.40;;;23.20;99.90;;;;;;5045874;28;20178;-95
2023/09/28 11:39:42;;;;;;;7.60;3.92;;;23.30;99.90;;;;;;5050053;28;20339;-96
2023/09/28 11:42:14;;;;;;;5.68;3.72;;;23.30;99.90;;;;;;5051879;28;20186;-96
2023/09/28 11:44:42;;;;;;;6.60;3.55;;;23.40;99.90;;;;;;5049968;28;20166;-95
2023/09/28 11:47:32;;;;;;;7.68;3.50;;;23.50;99.90;;;;;;5046972;28;20209;-95
2023/09/28 11:50:03;;;;;;;5.82;3.67;;;23.60;99.90;;;;;;5048346;28;20166;-96
2023/09/28 11:52:28;;;;;;;5.32;3.55;;;23.70;99.90;;;;;;5055313;28;20212;-89
2023/09/28 11:55:07;;;;;;;7.03;3.97;;;23.70;99.90;;;;;;5062470;28;20241;-88
2023/09/28 11:57:36;;;;;;;5.72;3.40;;;23.90;99.90;;;;;;5040759;28;20209;-89
2023/09/28 12:00:03;;;;;;;9.43;3.42;;;23.90;99.90;;;;;;5041746;28;20232;-91
2023/09/28 12:02:29;;;;;;;7.05;3.05;;;23.90;99.90;;;;;;5043387;28;20206;-87
2023/09/28 12:04:57;;;;;;;7.07;3.70;;;23.90;99.90;;;;;;5043630;28;20173;-89
2023/09/28 12:07:25;;;;;;;7.10;3.20;;;24.10;99.90;;;;;;5043490;28;20214;-89
2023/09/28 12:09:51;;;;;;;8.75;3.50;;;24.10;99.90;;;;;;5043193;28;20178;-88
2023/09/28 12:12:17;;;;;;;6.63;3.50;;;24.10;99.90;;;;;;5043735;28;20621;-90
2023/09/28 12:14:43;;;;;;;9.25;3.78;;;24.10;99.90;;;;;;5060095;28;20324;-90
2023/09/28 12:17:11;;;;;;;10.63;3.70;;;24.10;99.90;;;;;;5041701;28;20178;-89
2023/09/28 12:19:36;;;;;;;8.05;3.70;;;24.20;99.90;;;;;;5037901;28;20233;-88
2023/09/28 12:22:03;;;;;;;8.98;3.45;;;24.30;99.90;;;;;;5040297;28;20191;-88
2023/09/28 12:24:29;;;;;;;6.00;3.35;;;24.40;99.90;;;;;;5045631;28;20246;-96
2023/09/28 12:27:01;;;;;;;7.38;3.40;;;24.40;99.90;;;;;;5051154;28;20206;-90
2023/09/28 12:29:26;;;;;;;7.57;3.47;;;24.40;99.90;;;;;;5051811;28;20266;-88
2023/09/28 12:31:53;;;;;;;6.20;3.42;;;24.50;99.90;;;;;;5045998;28;20183;-91
2023/09/28 12:34:18;;;;;;;6.88;3.42;;;24.50;99.90;;;;;;5046402;28;20515;-90
2023/09/28 12:36:45;;;;;;;7.28;3.45;;;24.60;99.90;;;;;;5043391;28;20181;-93
2023/09/28 12:39:11;;;;;;;6.40;3.28;;;24.60;99.90;;;;;;5040603;28;20174;-88
2023/09/28 12:41:37;;;;;;;9.88;3.70;;;24.60;99.90;;;;;;5041241;28;20549;-87
2023/09/28 12:44:13;;;;;;;5.93;3.40;;;24.60;99.90;;;;;;5032664;23;20267;-88
2023/09/28 12:46:39;;;;;;;6.28;3.33;;;24.60;99.90;;;;;;4969702;28;20227;-92
2023/09/28 12:49:05;;;;;;;6.72;3.20;;;24.70;99.90;;;;;;4997452;28;20180;-89
2023/09/28 12:51:31;;;;;;;8.65;3.35;;;24.70;99.90;;;;;;4998437;28;20185;-90
2023/09/28 12:53:57;;;;;;;5.65;2.92;;;24.80;99.90;;;;;;4998615;28;20236;-89
2023/09/28 12:56:30;;;;;;;5.53;3.30;;;24.90;99.90;;;;;;4998168;28;20275;-89
2023/09/28 12:58:56;;;;;;;10.57;3.55;;;25.00;99.90;;;;;;4997314;28;20188;-90
2023/09/28 13:01:22;;;;;;;7.55;3.20;;;24.90;99.90;;;;;;4997253;28;20515;-90
2023/09/28 13:03:49;;;;;;;7.53;3.22;;;25.00;99.90;;;;;;4996734;28;20209;-89
2023/09/28 13:06:29;;;;;;;4.90;3.03;;;25.10;99.90;;;;;;4996396;28;20223;-89